createdAt,value
2018-11-23T05:56:55.928Z,1007.01
2018-11-23T05:57:55.912Z,1007.02
2018-11-23T05:58:55.896Z,1007.05
2018-11-23T05:59:55.885Z,1007.00
2018-11-23T06:00:55.875Z,1006.99
2018-11-23T06:01:55.881Z,1007.03
2018-11-23T06:02:55.870Z,1006.98
2018-11-23T06:03:55.842Z,1007.00
2018-11-23T06:04:55.833Z,1006.99
2018-11-23T06:05:55.821Z,1007.01
2018-11-23T06:06:55.824Z,1007.01
2018-11-23T06:07:55.800Z,1006.99
2018-11-23T06:08:55.795Z,1007.02
2018-11-23T06:09:55.804Z,1007.05
2018-11-23T06:10:55.770Z,1006.99
2018-11-23T06:11:55.757Z,1007.04
2018-11-23T06:12:55.747Z,1007.06
2018-11-23T06:13:55.735Z,1007.02
2018-11-23T06:14:55.726Z,1007.04
2018-11-23T06:15:55.761Z,1007.03
2018-11-23T06:16:55.708Z,1007.00
2018-11-23T06:17:55.696Z,1007.02
2018-11-23T06:18:55.682Z,1006.99
2018-11-23T06:19:55.671Z,1006.99
2018-11-23T06:20:55.661Z,1006.99
2018-11-23T06:21:55.661Z,1006.99
2018-11-23T06:22:55.652Z,1006.99
2018-11-23T06:23:55.639Z,1006.94
2018-11-23T06:24:55.618Z,1006.97
2018-11-23T06:25:55.609Z,1006.89
2018-11-23T06:26:55.596Z,1006.94
2018-11-23T06:27:55.587Z,1006.92
2018-11-23T06:28:55.611Z,1006.87
2018-11-23T06:29:55.564Z,1006.84
2018-11-23T06:30:55.590Z,1006.90
2018-11-23T06:31:55.542Z,1006.88
2018-11-23T06:32:55.534Z,1006.91
2018-11-23T06:33:55.521Z,1006.93
2018-11-23T06:34:55.522Z,1006.90
2018-11-23T06:35:55.500Z,1006.92
2018-11-23T06:36:55.509Z,1006.88
2018-11-23T06:37:55.478Z,1006.90
2018-11-23T06:38:55.475Z,1006.92
2018-11-23T06:39:55.472Z,1006.91
2018-11-23T06:40:55.449Z,1006.89
2018-11-23T06:41:55.436Z,1006.90
2018-11-23T06:42:55.424Z,1006.86
2018-11-23T06:43:55.419Z,1006.85
2018-11-23T06:44:55.415Z,1006.82
2018-11-23T06:45:55.393Z,1006.80
2018-11-23T06:46:55.383Z,1006.83
2018-11-23T06:47:55.373Z,1006.84
2018-11-23T06:48:55.365Z,1006.80
2018-11-23T06:49:55.365Z,1006.79
2018-11-23T06:50:55.339Z,1006.76
2018-11-23T06:51:55.367Z,1006.84
2018-11-23T06:52:55.317Z,1006.84
2018-11-23T06:53:55.306Z,1006.85
2018-11-23T06:54:55.296Z,1006.82
2018-11-23T06:55:55.287Z,1006.83
2018-11-23T06:56:55.276Z,1006.81
2018-11-23T06:57:55.278Z,1006.84
2018-11-23T06:58:55.253Z,1006.84
2018-11-23T06:59:55.246Z,1006.87
2018-11-23T07:00:55.243Z,1006.88
2018-11-23T07:01:55.224Z,1006.83
2018-11-23T07:02:59.087Z,1006.84
2018-11-23T07:03:55.201Z,1006.88
2018-11-23T07:04:55.187Z,1006.87
2018-11-23T07:05:55.193Z,1006.87
2018-11-23T07:06:55.169Z,1006.88
2018-11-23T07:07:55.159Z,1006.91
2018-11-23T07:08:55.147Z,1006.87
2018-11-23T07:09:55.138Z,1006.91
2018-11-23T07:10:55.154Z,1006.87
2018-11-23T07:11:55.115Z,1006.85
2018-11-23T07:12:55.105Z,1006.85
2018-11-23T07:13:55.093Z,1006.87
2018-11-23T07:14:55.083Z,1006.86
2018-11-23T07:15:55.072Z,1006.88
2018-11-23T07:16:55.076Z,1006.88
2018-11-23T07:17:55.065Z,1006.87
2018-11-23T07:18:55.046Z,1006.86
2018-11-23T07:19:55.029Z,1006.89
2018-11-23T07:20:55.020Z,1006.92
2018-11-23T07:21:55.008Z,1006.92
2018-11-23T07:22:55.021Z,1006.92
2018-11-23T07:23:54.986Z,1006.94
2018-11-23T07:24:54.990Z,1006.88
2018-11-23T07:25:54.965Z,1006.96
2018-11-23T07:26:54.954Z,1006.92
2018-11-23T07:27:54.978Z,1006.98
2018-11-23T07:28:54.933Z,1006.93
2018-11-23T07:29:54.922Z,1006.94
2018-11-23T07:30:55.918Z,1006.95
2018-11-23T07:31:54.901Z,1006.94
2018-11-23T07:32:54.892Z,1006.97
2018-11-23T07:33:54.893Z,1006.88
2018-11-23T07:34:54.869Z,1006.87
2018-11-23T07:35:54.857Z,1006.88
2018-11-23T07:36:54.847Z,1006.93
2018-11-23T07:37:54.836Z,1006.93
2018-11-23T07:38:54.840Z,1006.93
2018-11-23T07:39:54.815Z,1006.91
2018-11-23T07:40:54.804Z,1006.94
2018-11-23T07:41:54.794Z,1006.89
2018-11-23T07:42:54.789Z,1006.89
2018-11-23T07:43:54.784Z,1006.93
2018-11-23T07:44:54.759Z,1006.93
2018-11-23T07:45:54.749Z,1006.94
2018-11-23T07:46:54.738Z,1006.87
2018-11-23T07:47:54.729Z,1006.90
2018-11-23T07:48:54.734Z,1006.91
2018-11-23T07:49:54.705Z,1006.93
2018-11-23T07:50:55.763Z,1006.94
2018-11-23T07:51:54.698Z,1006.93
2018-11-23T07:52:54.672Z,1006.96
2018-11-23T07:53:54.706Z,1006.98
2018-11-23T07:54:54.650Z,1006.95
2018-11-23T07:55:54.642Z,1006.99
2018-11-23T07:56:54.629Z,1007.03
2018-11-23T07:57:54.621Z,1007.00
2018-11-23T07:58:54.609Z,1006.99
2018-11-23T07:59:54.608Z,1007.01
2018-11-23T08:00:54.586Z,1007.01
2018-11-23T08:01:54.586Z,1007.02
2018-11-23T08:02:54.567Z,1007.00
2018-11-23T08:03:54.554Z,1006.98
2018-11-23T08:04:54.573Z,1006.97
2018-11-23T08:05:54.532Z,1006.95
2018-11-23T08:06:54.521Z,1006.96
2018-11-23T08:07:54.509Z,1006.91
2018-11-23T08:08:54.499Z,1006.98
2018-11-23T08:09:54.487Z,1007.00
2018-11-23T08:10:54.491Z,1007.02
2018-11-23T08:11:54.466Z,1006.99
2018-11-23T08:12:54.455Z,1007.00
2018-11-23T08:13:54.447Z,1006.99
2018-11-23T08:14:54.434Z,1006.97
2018-11-23T08:15:54.438Z,1006.91
2018-11-23T08:16:54.412Z,1006.97
2018-11-23T08:17:54.401Z,1006.92
2018-11-23T08:18:54.393Z,1006.88
2018-11-23T08:19:54.379Z,1006.86
2018-11-23T08:20:54.404Z,1006.81
2018-11-23T08:21:54.358Z,1006.79
2018-11-23T08:22:54.346Z,1006.77
2018-11-23T08:23:54.341Z,1006.77
2018-11-23T08:24:54.325Z,1006.79
2018-11-23T08:25:54.314Z,1006.84
2018-11-23T08:26:54.317Z,1006.78
2018-11-23T08:27:54.305Z,1006.77
2018-11-23T08:28:54.281Z,1006.80
2018-11-23T08:29:54.272Z,1006.81
2018-11-23T08:30:54.263Z,1006.78
2018-11-23T08:31:54.261Z,1006.79
2018-11-23T08:32:54.253Z,1006.77
2018-11-23T08:33:54.226Z,1006.75
2018-11-23T08:34:54.215Z,1006.80
2018-11-23T08:35:54.205Z,1006.76
2018-11-23T08:36:54.207Z,1006.79
2018-11-23T08:37:54.196Z,1006.74
2018-11-23T08:38:54.173Z,1006.72
2018-11-23T08:39:54.159Z,1006.71
2018-11-23T08:40:54.149Z,1006.71
2018-11-23T08:41:54.153Z,1006.66
2018-11-23T08:42:54.133Z,1006.64
2018-11-23T08:43:54.117Z,1006.64
2018-11-23T08:44:54.108Z,1006.65
2018-11-23T08:45:54.134Z,1006.68
2018-11-23T08:46:54.084Z,1006.69
2018-11-23T08:47:54.080Z,1006.73
2018-11-23T08:48:54.062Z,1006.72
2018-11-23T08:49:54.050Z,1006.72
2018-11-23T08:50:54.040Z,1006.67
2018-11-23T08:51:54.042Z,1006.65
2018-11-23T08:52:54.017Z,1006.68
2018-11-23T08:53:54.006Z,1006.73
2018-11-23T08:54:54.008Z,1006.71
2018-11-23T08:55:53.983Z,1006.67
2018-11-23T08:56:53.991Z,1006.64
2018-11-23T08:57:53.962Z,1006.65
2018-11-23T08:58:53.981Z,1006.64
2018-11-23T08:59:53.938Z,1006.65
2018-11-23T09:00:53.929Z,1006.69
2018-11-23T09:01:53.917Z,1006.70
2018-11-23T09:02:53.909Z,1006.74
2018-11-23T09:03:53.895Z,1006.71
2018-11-23T09:04:53.914Z,1006.69
2018-11-23T09:05:53.873Z,1006.70
2018-11-23T09:06:53.867Z,1006.69
2018-11-23T09:07:53.852Z,1006.69
2018-11-23T09:08:53.840Z,1006.70
2018-11-23T09:09:53.827Z,1006.69
2018-11-23T09:10:53.832Z,1006.69
2018-11-23T09:11:53.807Z,1006.69
2018-11-23T09:12:53.794Z,1006.68
2018-11-23T09:13:53.799Z,1006.67
2018-11-23T09:14:53.775Z,1006.70
2018-11-23T09:15:53.778Z,1006.73
2018-11-23T09:16:53.752Z,1006.72
2018-11-23T09:17:53.742Z,1006.77
2018-11-23T09:18:53.730Z,1006.77
2018-11-23T09:19:53.718Z,1006.75
2018-11-23T09:20:53.724Z,1006.73
2018-11-23T09:21:53.701Z,1006.74
2018-11-23T09:22:53.686Z,1006.73
2018-11-23T09:23:53.676Z,1006.71
2018-11-23T09:24:53.677Z,1006.71
2018-11-23T09:25:53.657Z,1006.67
2018-11-23T09:26:53.641Z,1006.63
2018-11-23T09:27:53.632Z,1006.59
2018-11-23T09:28:53.651Z,1006.64
2018-11-23T09:29:53.608Z,1006.65
2018-11-23T09:30:53.601Z,1006.66
2018-11-23T09:31:53.587Z,1006.65
2018-11-23T09:32:53.577Z,1006.64
2018-11-23T09:33:53.566Z,1006.72
2018-11-23T09:34:53.593Z,1006.66
2018-11-23T09:35:53.543Z,1006.64
2018-11-23T09:36:53.532Z,1006.63
2018-11-23T09:37:53.526Z,1006.62
2018-11-23T09:38:53.511Z,1006.62
2018-11-23T09:39:53.501Z,1006.62
2018-11-23T09:40:53.501Z,1006.64
2018-11-23T09:41:53.477Z,1006.64
2018-11-23T09:42:53.531Z,1006.59
2018-11-23T09:43:53.456Z,1006.60
2018-11-23T09:44:53.445Z,1006.58
2018-11-23T09:45:53.473Z,1006.59
2018-11-23T09:46:53.421Z,1006.53
2018-11-23T09:47:53.417Z,1006.52
2018-11-23T09:48:53.400Z,1006.50
2018-11-23T09:49:53.390Z,1006.45
2018-11-23T09:50:53.395Z,1006.45
2018-11-23T09:51:53.382Z,1006.50
2018-11-23T09:52:53.357Z,1006.48
2018-11-23T09:53:53.359Z,1006.49
2018-11-23T09:54:53.335Z,1006.53
2018-11-23T09:55:53.324Z,1006.48
2018-11-23T09:56:53.327Z,1006.47
2018-11-23T09:57:53.302Z,1006.51
2018-11-23T09:58:53.291Z,1006.48
2018-11-23T09:59:53.291Z,1006.46
2018-11-23T10:00:53.269Z,1006.50
2018-11-23T10:01:53.259Z,1006.49
2018-11-23T10:02:53.247Z,1006.53
2018-11-23T10:03:53.249Z,1006.60
2018-11-23T10:04:53.255Z,1006.57
2018-11-23T10:05:53.214Z,1006.56
2018-11-23T10:06:53.203Z,1006.50
2018-11-23T10:07:53.192Z,1006.57
2018-11-23T10:08:53.194Z,1006.55
2018-11-23T10:09:53.170Z,1006.60
2018-11-23T10:10:53.160Z,1006.59
2018-11-23T10:11:53.147Z,1006.61
2018-11-23T10:12:53.139Z,1006.58
2018-11-23T10:13:53.140Z,1006.59
2018-11-23T10:14:53.117Z,1006.59
2018-11-23T10:15:53.104Z,1006.53
2018-11-23T10:16:53.093Z,1006.48
2018-11-23T10:17:53.085Z,1006.45
2018-11-23T10:18:53.086Z,1006.42
2018-11-23T10:19:58.070Z,1006.48
2018-11-23T10:20:54.048Z,1006.49
2018-11-23T10:21:53.045Z,1006.48
2018-11-23T10:22:53.027Z,1006.45
2018-11-23T10:23:53.030Z,1006.44
2018-11-23T10:24:53.019Z,1006.43
2018-11-23T10:25:53.028Z,1006.44
2018-11-23T10:26:52.983Z,1006.39
2018-11-23T10:27:52.972Z,1006.38
2018-11-23T10:28:52.963Z,1006.42
2018-11-23T10:29:55.349Z,1006.36
2018-11-23T10:30:52.940Z,1006.36
2018-11-23T10:31:52.942Z,1006.29
2018-11-23T10:32:52.931Z,1006.33
2018-11-23T10:33:52.907Z,1006.31
2018-11-23T10:34:52.895Z,1006.26
2018-11-23T10:35:52.922Z,1006.24
2018-11-23T10:36:52.874Z,1006.23
2018-11-23T10:37:52.863Z,1006.21
2018-11-23T10:38:52.852Z,1006.26
2018-11-23T10:39:52.843Z,1006.24
2018-11-23T10:40:52.830Z,1006.24
2018-11-23T10:41:52.855Z,1006.23
2018-11-23T10:42:52.809Z,1006.27
2018-11-23T10:43:52.798Z,1006.24
2018-11-23T10:44:52.789Z,1006.24
2018-11-23T10:45:52.776Z,1006.19
2018-11-23T10:46:52.765Z,1006.22
2018-11-23T10:47:52.769Z,1006.23
2018-11-23T10:48:52.744Z,1006.26
2018-11-23T10:49:52.731Z,1006.23
2018-11-23T10:50:52.720Z,1006.19
2018-11-23T10:51:52.710Z,1006.28
2018-11-23T10:52:52.729Z,1006.28
2018-11-23T10:53:52.688Z,1006.28
2018-11-23T10:54:52.678Z,1006.21
2018-11-23T10:55:52.668Z,1006.24
2018-11-23T10:56:52.657Z,1006.24
2018-11-23T10:57:52.645Z,1006.24
2018-11-23T10:58:52.660Z,1006.27
2018-11-23T10:59:52.623Z,1006.24
2018-11-23T11:00:52.612Z,1006.26
2018-11-23T11:01:52.601Z,1006.25
2018-11-23T11:02:52.590Z,1006.26
2018-11-23T11:03:52.580Z,1006.21
2018-11-23T11:04:52.585Z,1006.28
2018-11-23T11:05:52.558Z,1006.27
2018-11-23T11:06:52.547Z,1006.29
2018-11-23T11:07:52.539Z,1006.29
2018-11-23T11:08:52.525Z,1006.31
2018-11-23T11:09:52.527Z,1006.27
2018-11-23T11:10:52.503Z,1006.29
2018-11-23T11:11:52.493Z,1006.24
2018-11-23T11:12:52.481Z,1006.19
2018-11-23T11:13:52.472Z,1006.24
2018-11-23T11:14:52.473Z,1006.14
2018-11-23T11:15:52.461Z,1006.18
2018-11-23T11:16:52.437Z,1006.13
2018-11-23T11:17:52.426Z,1006.09
2018-11-23T11:18:52.416Z,1006.11
2018-11-23T11:19:52.406Z,1006.15
2018-11-23T11:20:52.407Z,1006.18
2018-11-23T11:21:52.397Z,1006.17
2018-11-23T11:22:52.371Z,1006.15
2018-11-23T11:23:52.361Z,1006.13
2018-11-23T11:24:52.350Z,1006.13
2018-11-23T11:25:52.339Z,1006.11
2018-11-23T11:26:52.358Z,1006.07
2018-11-23T11:27:52.317Z,1006.11
2018-11-23T11:28:52.309Z,1006.08
2018-11-23T11:29:52.295Z,1006.05
2018-11-23T11:30:52.284Z,1006.09
2018-11-23T11:31:52.273Z,1006.06
2018-11-23T11:32:52.275Z,1006.07
2018-11-23T11:33:52.250Z,1006.07
2018-11-23T11:34:52.241Z,1006.09
2018-11-23T11:35:52.263Z,1006.09
2018-11-23T11:36:52.218Z,1006.03
2018-11-23T11:37:52.214Z,1006.09
2018-11-23T11:38:52.196Z,1006.06
2018-11-23T11:39:52.185Z,1006.03
2018-11-23T11:40:52.174Z,1005.99
2018-11-23T11:41:52.182Z,1005.97
2018-11-23T11:42:52.152Z,1006.01
2018-11-23T11:43:52.141Z,1005.97
2018-11-23T11:44:52.130Z,1005.92
2018-11-23T11:45:52.120Z,1005.84
2018-11-23T11:46:52.145Z,1005.81
2018-11-23T11:47:52.097Z,1005.80
2018-11-23T11:48:52.086Z,1005.79
2018-11-23T11:49:54.671Z,1005.74
2018-11-23T11:50:53.063Z,1005.75
2018-11-23T11:51:52.052Z,1005.72
2018-11-23T11:52:52.057Z,1005.75
2018-11-23T11:53:52.034Z,1005.76
2018-11-23T11:54:52.021Z,1005.72
2018-11-23T11:55:52.010Z,1005.73
2018-11-23T11:56:51.999Z,1005.67
2018-11-23T11:57:52.024Z,1005.58
2018-11-23T11:58:51.976Z,1005.62
2018-11-23T11:59:51.966Z,1005.61
2018-11-23T12:00:51.961Z,1005.61
2018-11-23T12:01:51.945Z,1005.60
2018-11-23T12:02:51.933Z,1005.57
2018-11-23T12:03:51.939Z,1005.57
2018-11-23T12:04:51.911Z,1005.57
2018-11-23T12:05:51.901Z,1005.62
2018-11-23T12:06:51.888Z,1005.60
2018-11-23T12:07:51.910Z,1005.61
2018-11-23T12:08:51.869Z,1005.62
2018-11-23T12:09:51.860Z,1005.58
2018-11-23T12:10:51.845Z,1005.60
2018-11-23T12:11:51.835Z,1005.61
2018-11-23T12:12:51.824Z,1005.59
2018-11-23T12:13:51.826Z,1005.56
2018-11-23T12:14:51.817Z,1005.55
2018-11-23T12:15:51.791Z,1005.50
2018-11-23T12:16:51.781Z,1005.51
2018-11-23T12:17:51.770Z,1005.49
2018-11-23T12:18:51.772Z,1005.48
2018-11-23T12:19:51.748Z,1005.49
2018-11-23T12:20:51.736Z,1005.44
2018-11-23T12:21:51.726Z,1005.45
2018-11-23T12:22:51.715Z,1005.42
2018-11-23T12:23:51.730Z,1005.45
2018-11-23T12:24:51.694Z,1005.45
2018-11-23T12:25:51.683Z,1005.42
2018-11-23T12:26:51.671Z,1005.45
2018-11-23T12:27:51.663Z,1005.42
2018-11-23T12:28:51.651Z,1005.42
2018-11-23T12:29:51.654Z,1005.41
2018-11-23T12:30:51.629Z,1005.42
2018-11-23T12:31:51.618Z,1005.41
2018-11-23T12:32:51.607Z,1005.39
2018-11-23T12:33:51.597Z,1005.41
2018-11-23T12:34:51.599Z,1005.38
2018-11-23T12:35:51.575Z,1005.35
2018-11-23T12:36:51.564Z,1005.34
2018-11-23T12:37:51.554Z,1005.33
2018-11-23T12:38:51.555Z,1005.37
2018-11-23T12:39:51.531Z,1005.29
2018-11-23T12:40:51.534Z,1005.26
2018-11-23T12:41:51.509Z,1005.26
2018-11-23T12:42:51.498Z,1005.24
2018-11-23T12:43:51.487Z,1005.23
2018-11-23T12:44:51.476Z,1005.28
2018-11-23T12:45:51.477Z,1005.24
2018-11-23T12:46:51.454Z,1005.26
2018-11-23T12:47:51.459Z,1005.24
2018-11-23T12:48:51.431Z,1005.21
2018-11-23T12:49:51.421Z,1005.19
2018-11-23T12:50:51.424Z,1005.20
2018-11-23T12:51:51.399Z,1005.20
2018-11-23T12:52:51.393Z,1005.17
2018-11-23T12:53:51.377Z,1005.09
2018-11-23T12:54:51.366Z,1005.08
2018-11-23T12:55:51.381Z,1005.10
2018-11-23T12:56:51.344Z,1005.06
2018-11-23T12:57:51.333Z,1005.09
2018-11-23T12:58:51.324Z,1005.10
2018-11-23T12:59:51.311Z,1005.09
2018-11-23T13:00:51.302Z,1005.05
2018-11-23T13:01:51.302Z,1005.04
2018-11-23T13:02:51.279Z,1005.01
2018-11-23T13:03:51.267Z,1004.97
2018-11-23T13:04:51.257Z,1005.03
2018-11-23T13:05:51.259Z,1005.03
2018-11-23T13:06:51.238Z,1005.02
2018-11-23T13:07:51.225Z,1005.00
2018-11-23T13:08:51.212Z,1005.04
2018-11-23T13:09:51.201Z,1005.01
2018-11-23T13:10:51.204Z,1005.04
2018-11-23T13:11:51.196Z,1005.01
2018-11-23T13:12:51.213Z,1005.03
2018-11-23T13:13:51.159Z,1005.00
2018-11-23T13:14:51.148Z,1005.05
2018-11-23T13:15:51.137Z,1005.05
2018-11-23T13:16:51.141Z,1005.02
2018-11-23T13:17:51.116Z,1005.05
2018-11-23T13:18:51.104Z,1005.05
2018-11-23T13:19:51.093Z,1005.04
2018-11-23T13:20:51.083Z,1005.07
2018-11-23T13:21:51.086Z,1005.10
2018-11-23T13:22:51.112Z,1005.05
2018-11-23T13:23:51.050Z,1005.08
2018-11-23T13:24:51.040Z,1005.11
2018-11-23T13:25:51.031Z,1005.06
2018-11-23T13:26:51.018Z,1005.07
2018-11-23T13:27:51.007Z,1005.05
2018-11-23T13:28:51.011Z,1004.99
2018-11-23T13:29:50.988Z,1004.98
2018-11-23T13:30:50.975Z,1005.01
2018-11-23T13:31:50.966Z,1005.00
2018-11-23T13:32:50.953Z,1005.00
2018-11-23T13:33:50.956Z,1005.03
2018-11-23T13:34:50.932Z,1005.04
2018-11-23T13:35:50.921Z,1005.04
2018-11-23T13:36:50.910Z,1005.05
2018-11-23T13:37:50.936Z,1004.99
2018-11-23T13:38:50.891Z,1005.03
2018-11-23T13:39:50.877Z,1004.98
2018-11-23T13:40:50.866Z,1005.04
2018-11-23T13:41:50.855Z,1005.02
2018-11-23T13:42:50.844Z,1005.04
2018-11-23T13:43:50.848Z,1005.03
2018-11-23T13:44:50.823Z,1005.01
2018-11-23T13:45:50.811Z,1005.00
2018-11-23T13:46:50.800Z,1004.97
2018-11-23T13:47:50.790Z,1004.95
2018-11-23T13:48:50.792Z,1004.88
2018-11-23T13:49:50.766Z,1004.93
2018-11-23T13:50:50.756Z,1004.82
2018-11-23T13:51:50.744Z,1004.79
2018-11-23T13:52:50.746Z,1004.78
2018-11-23T13:53:50.737Z,1004.73
2018-11-23T13:54:50.726Z,1004.74
2018-11-23T13:55:50.701Z,1004.68
2018-11-23T13:56:50.690Z,1004.70
2018-11-23T13:57:50.679Z,1004.71
2018-11-23T13:58:50.697Z,1004.70
2018-11-23T13:59:50.659Z,1004.67
2018-11-23T14:00:50.646Z,1004.63
2018-11-23T14:01:50.636Z,1004.60
2018-11-23T14:02:50.624Z,1004.57
2018-11-23T14:03:50.614Z,1004.60
2018-11-23T14:04:50.620Z,1004.57
2018-11-23T14:05:50.605Z,1004.59
2018-11-23T14:06:50.581Z,1004.55
2018-11-23T14:07:50.572Z,1004.52
2018-11-23T14:08:50.574Z,1004.56
2018-11-23T14:09:50.548Z,1004.59
2018-11-23T14:10:50.538Z,1004.58
2018-11-23T14:11:50.528Z,1004.55
2018-11-23T14:12:50.515Z,1004.56
2018-11-23T14:13:50.521Z,1004.53
2018-11-23T14:14:50.494Z,1004.51
2018-11-23T14:15:50.487Z,1004.59
2018-11-23T14:16:50.485Z,1004.57
2018-11-23T14:17:50.460Z,1004.58
2018-11-23T14:18:50.464Z,1004.56
2018-11-23T14:19:50.439Z,1004.56
2018-11-23T14:20:50.428Z,1004.57
2018-11-23T14:21:50.417Z,1004.54
2018-11-23T14:22:50.406Z,1004.56
2018-11-23T14:23:50.432Z,1004.56
2018-11-23T14:24:50.383Z,1004.58
2018-11-23T14:25:50.372Z,1004.60
2018-11-23T14:26:50.362Z,1004.61
2018-11-23T14:27:50.350Z,1004.61
2018-11-23T14:28:50.339Z,1004.62
2018-11-23T14:29:50.340Z,1004.60
2018-11-23T14:30:50.317Z,1004.51
2018-11-23T14:31:50.321Z,1004.54
2018-11-23T14:32:50.294Z,1004.53
2018-11-23T14:33:50.303Z,1004.48
2018-11-23T14:34:50.272Z,1004.49
2018-11-23T14:35:50.261Z,1004.49
2018-11-23T14:36:50.250Z,1004.47
2018-11-23T14:37:50.246Z,1004.46
2018-11-23T14:38:50.243Z,1004.41
2018-11-23T14:39:50.218Z,1004.48
2018-11-23T14:40:50.205Z,1004.44
2018-11-23T14:41:50.194Z,1004.40
2018-11-23T14:42:50.219Z,1004.38
2018-11-23T14:43:50.174Z,1004.46
2018-11-23T14:44:50.161Z,1004.45
2018-11-23T14:45:50.154Z,1004.41
2018-11-23T14:46:50.138Z,1004.43
2018-11-23T14:47:50.126Z,1004.42
2018-11-23T14:48:50.132Z,1004.40
2018-11-23T14:49:50.105Z,1004.36
2018-11-23T14:50:50.093Z,1004.37
2018-11-23T14:51:50.119Z,1004.34
2018-11-23T14:52:50.072Z,1004.39
2018-11-23T14:53:50.062Z,1004.39
2018-11-23T14:54:50.052Z,1004.37
2018-11-23T14:55:50.039Z,1004.37
2018-11-23T14:56:50.028Z,1004.39
2018-11-23T14:57:50.048Z,1004.36
2018-11-23T14:58:50.007Z,1004.34
2018-11-23T14:59:49.996Z,1004.39
2018-11-23T15:00:49.986Z,1004.34
2018-11-23T15:01:52.053Z,1004.34
2018-11-23T15:02:49.963Z,1004.35
2018-11-23T15:03:49.992Z,1004.36
2018-11-23T15:04:49.941Z,1004.39
2018-11-23T15:05:49.930Z,1004.43
2018-11-23T15:06:49.920Z,1004.39
2018-11-23T15:07:49.909Z,1004.44
2018-11-23T15:08:49.898Z,1004.44
2018-11-23T15:09:49.902Z,1004.41
2018-11-23T15:10:49.876Z,1004.39
2018-11-23T15:11:49.865Z,1004.35
2018-11-23T15:12:49.882Z,1004.36
2018-11-23T15:13:49.844Z,1004.33
2018-11-23T15:14:49.832Z,1004.34
2018-11-23T15:15:49.823Z,1004.36
2018-11-23T15:16:49.812Z,1004.34
2018-11-23T15:17:49.802Z,1004.37
2018-11-23T15:18:49.804Z,1004.34
2018-11-23T15:19:49.791Z,1004.34
2018-11-23T15:20:49.768Z,1004.34
2018-11-23T15:21:49.760Z,1004.34
2018-11-23T15:22:49.751Z,1004.36
2018-11-23T15:23:49.734Z,1004.32
2018-11-23T15:24:49.739Z,1004.36
2018-11-23T15:25:49.725Z,1004.35
2018-11-23T15:26:49.701Z,1004.33
2018-11-23T15:27:49.690Z,1004.36
2018-11-23T15:28:49.695Z,1004.29
2018-11-23T15:29:49.709Z,1004.32
2018-11-23T15:30:49.658Z,1004.29
2018-11-23T15:31:49.649Z,1004.26
2018-11-23T15:32:49.636Z,1004.23
2018-11-23T15:33:49.669Z,1004.19
2018-11-23T15:34:49.615Z,1004.25
2018-11-23T15:35:49.616Z,1004.15
2018-11-23T15:36:49.593Z,1004.18
2018-11-23T15:37:49.581Z,1004.13
2018-11-23T15:38:49.571Z,1004.14
2018-11-23T15:39:49.566Z,1004.17
2018-11-23T15:40:49.581Z,1004.22
2018-11-23T15:41:49.538Z,1004.19
2018-11-23T15:42:49.529Z,1004.24
2018-11-23T15:43:49.517Z,1004.23
2018-11-23T15:44:49.507Z,1004.25
2018-11-23T15:45:49.496Z,1004.24
2018-11-23T15:46:49.525Z,1004.22
2018-11-23T15:47:49.473Z,1004.19
2018-11-23T15:48:49.463Z,1004.22
2018-11-23T15:49:49.453Z,1004.15
2018-11-23T15:50:49.443Z,1004.18
2018-11-23T15:51:49.432Z,1004.12
2018-11-23T15:52:49.434Z,1004.17
2018-11-23T15:53:49.412Z,1004.12
2018-11-23T15:54:49.400Z,1004.12
2018-11-23T15:55:49.392Z,1004.15
2018-11-23T15:56:49.376Z,1004.17
2018-11-23T15:57:49.385Z,1004.20
2018-11-23T15:58:49.356Z,1004.19
2018-11-23T15:59:49.344Z,1004.21
2018-11-23T16:00:49.333Z,1004.20
2018-11-23T16:01:49.323Z,1004.20
2018-11-23T16:02:49.326Z,1004.17
2018-11-23T16:03:49.301Z,1004.15
2018-11-23T16:04:49.291Z,1004.17
2018-11-23T16:05:49.293Z,1004.15
2018-11-23T16:06:49.267Z,1004.14
2018-11-23T16:07:49.257Z,1004.09
2018-11-23T16:08:49.285Z,1004.13
2018-11-23T16:09:51.142Z,1004.10
2018-11-23T16:10:50.143Z,1004.13
2018-11-23T16:11:50.221Z,1004.11
2018-11-23T16:12:49.202Z,1004.07
2018-11-23T16:13:49.190Z,1004.10
2018-11-23T16:14:49.196Z,1004.11
2018-11-23T16:15:49.170Z,1004.12
2018-11-23T16:16:49.159Z,1004.09
2018-11-23T16:17:49.151Z,1004.15
2018-11-23T16:18:49.141Z,1004.14
2018-11-23T16:19:49.141Z,1004.17
2018-11-23T16:20:49.116Z,1004.16
2018-11-23T16:21:49.105Z,1004.18
2018-11-23T16:22:49.095Z,1004.21
2018-11-23T16:23:49.084Z,1004.20
2018-11-23T16:24:49.100Z,1004.19
2018-11-23T16:25:49.063Z,1004.19
2018-11-23T16:26:49.052Z,1004.19
2018-11-23T16:27:49.040Z,1004.19
2018-11-23T16:28:49.029Z,1004.21
2018-11-23T16:29:49.019Z,1004.21
2018-11-23T16:30:49.045Z,1004.18
2018-11-23T16:31:48.998Z,1004.20
2018-11-23T16:32:48.986Z,1004.18
2018-11-23T16:33:48.975Z,1004.22
2018-11-23T16:34:48.964Z,1004.19
2018-11-23T16:35:48.954Z,1004.19
2018-11-23T16:36:48.958Z,1004.19
2018-11-23T16:37:48.935Z,1004.17
2018-11-23T16:38:48.923Z,1004.17
2018-11-23T16:39:48.919Z,1004.19
2018-11-23T16:40:48.914Z,1004.15
2018-11-23T16:41:48.889Z,1004.18
2018-11-23T16:42:48.877Z,1004.19
2018-11-23T16:43:48.867Z,1004.15
2018-11-23T16:44:48.896Z,1004.16
2018-11-23T16:45:48.846Z,1004.15
2018-11-23T16:46:48.836Z,1004.11
2018-11-23T16:47:48.823Z,1004.13
2018-11-23T16:48:48.813Z,1004.07
2018-11-23T16:49:48.805Z,1004.05
2018-11-23T16:50:48.808Z,1004.05
2018-11-23T16:51:48.786Z,1004.08
2018-11-23T16:52:48.771Z,1004.06
2018-11-23T16:53:48.759Z,1004.06
2018-11-23T16:54:48.763Z,1004.06
2018-11-23T16:55:48.752Z,1004.01
2018-11-23T16:56:48.761Z,1004.00
2018-11-23T16:57:48.716Z,1003.98
2018-11-23T16:58:48.705Z,1003.99
2018-11-23T16:59:48.695Z,1003.98
2018-11-23T17:00:48.684Z,1003.97
2018-11-23T17:01:48.673Z,1003.96
2018-11-23T17:02:48.677Z,1003.92
2018-11-23T17:03:48.653Z,1003.97
2018-11-23T17:04:48.638Z,1003.95
2018-11-23T17:05:48.629Z,1003.95
2018-11-23T17:06:48.619Z,1004.00
2018-11-23T17:07:48.622Z,1003.95
2018-11-23T17:08:48.597Z,1003.95
2018-11-23T17:09:48.588Z,1003.98
2018-11-23T17:10:48.576Z,1003.99
2018-11-23T17:11:48.564Z,1003.98
2018-11-23T17:12:48.568Z,1003.94
2018-11-23T17:13:48.569Z,1003.95
2018-11-23T17:14:48.533Z,1003.91
2018-11-23T17:15:48.521Z,1003.93
2018-11-23T17:16:48.510Z,1003.91
2018-11-23T17:17:48.500Z,1003.87
2018-11-23T17:18:48.488Z,1003.87
2018-11-23T17:19:48.492Z,1003.83
2018-11-23T17:20:48.467Z,1003.82
2018-11-23T17:21:48.456Z,1003.81
2018-11-23T17:22:48.445Z,1003.79
2018-11-23T17:23:48.451Z,1003.77
2018-11-23T17:24:48.423Z,1003.80
2018-11-23T17:25:48.412Z,1003.83
2018-11-23T17:26:48.404Z,1003.81
2018-11-23T17:27:48.396Z,1003.82
2018-11-23T17:28:48.395Z,1003.86
2018-11-23T17:29:48.417Z,1003.84
2018-11-23T17:30:48.357Z,1003.90
2018-11-23T17:31:48.347Z,1003.88
2018-11-23T17:32:48.336Z,1003.85
2018-11-23T17:33:48.326Z,1003.84
2018-11-23T17:34:48.315Z,1003.86
2018-11-23T17:35:48.331Z,1003.80
2018-11-23T17:36:48.292Z,1003.79
2018-11-23T17:37:48.281Z,1003.75
2018-11-23T17:38:48.271Z,1003.77
2018-11-23T17:39:48.260Z,1003.76
2018-11-23T17:40:48.249Z,1003.75
2018-11-23T17:41:48.252Z,1003.72
2018-11-23T17:42:48.226Z,1003.74
2018-11-23T17:43:48.216Z,1003.72
2018-11-23T17:44:48.206Z,1003.70
2018-11-23T17:45:48.207Z,1003.73
2018-11-23T17:46:48.222Z,1003.68
2018-11-23T17:47:48.172Z,1003.74
2018-11-23T17:48:48.164Z,1003.65
2018-11-23T17:49:48.150Z,1003.71
2018-11-23T17:50:48.140Z,1003.74
2018-11-23T17:51:48.130Z,1003.69
2018-11-23T17:52:48.162Z,1003.73
2018-11-23T17:53:48.106Z,1003.72
2018-11-23T17:54:48.097Z,1003.69
2018-11-23T17:55:48.088Z,1003.74
2018-11-23T17:56:48.076Z,1003.76
2018-11-23T17:57:48.065Z,1003.73
2018-11-23T17:58:48.072Z,1003.76
2018-11-23T17:59:48.058Z,1003.76
2018-11-23T18:00:48.058Z,1003.79
2018-11-23T18:01:48.022Z,1003.76